Time;durP1;ratioP1;P1;durP2;ratioP2;P2;SDS_P1;SDS_P2;PMS_P1;PMS_P2;Temp;Humidity;BMP_temperature;BMP_pressure;BME280_temperature;BME280_humidity;BME280_pressure;Samples;Min_cycle;Max_cycle;Signal;HPM_P1;HPM_P2
2021/07/15 00:00:38;;;;;;;9.38;6.28;;;18.70;99.90;;;;;;5066603;28;20202;-77
2021/07/15 00:03:07;;;;;;;12.27;6.93;;;18.70;99.90;;;;;;5060798;28;20251;-77
2021/07/15 00:05:36;;;;;;;12.32;6.30;;;18.70;99.90;;;;;;5066456;28;20545;-77
2021/07/15 00:08:04;;;;;;;8.77;6.35;;;18.80;99.90;;;;;;5065848;28;20308;-76
2021/07/15 00:10:35;;;;;;;13.95;7.35;;;18.80;99.90;;;;;;5066250;28;20214;-77
2021/07/15 00:13:03;;;;;;;14.65;6.90;;;18.80;99.90;;;;;;5064691;28;20206;-77
2021/07/15 00:15:32;;;;;;;11.50;6.35;;;18.80;99.90;;;;;;5065476;28;20235;-77
2021/07/15 00:18:00;;;;;;;8.93;7.38;;;18.80;99.90;;;;;;5064013;28;20206;-77
2021/07/15 00:20:27;;;;;;;13.65;7.72;;;18.80;99.90;;;;;;5062131;28;20289;-77
2021/07/15 00:22:54;;;;;;;8.70;6.63;;;18.90;99.90;;;;;;5065177;28;20205;-77
2021/07/15 00:25:24;;;;;;;11.48;7.45;;;18.90;99.90;;;;;;5065312;28;20202;-77
2021/07/15 00:35:53;;;;;;;11.98;7.78;;;18.80;99.90;;;;;;5525740;23;20329;-76
2021/07/15 00:38:20;;;;;;;13.55;8.27;;;18.90;99.90;;;;;;5047967;28;20206;-75
2021/07/15 00:40:47;;;;;;;16.63;7.70;;;18.90;99.90;;;;;;5046978;28;20206;-75
2021/07/15 00:43:14;;;;;;;12.30;8.20;;;18.90;99.90;;;;;;5051924;28;20264;-76
2021/07/15 00:45:41;;;;;;;19.45;8.70;;;19.00;99.90;;;;;;5053132;28;20206;-75
2021/07/15 00:48:08;;;;;;;12.73;7.50;;;18.90;99.90;;;;;;5049481;28;20230;-75
2021/07/15 00:50:35;;;;;;;19.55;7.93;;;18.90;99.90;;;;;;5046975;28;20203;-75
2021/07/15 00:53:12;;;;;;;12.70;7.93;;;18.80;99.90;;;;;;5046191;28;20687;-76
2021/07/15 00:55:42;;;;;;;13.25;7.88;;;18.90;99.90;;;;;;5047497;28;20210;-75
2021/07/15 00:58:11;;;;;;;11.57;8.60;;;18.90;99.90;;;;;;5053563;28;20239;-75
2021/07/15 01:00:39;;;;;;;12.93;8.38;;;18.80;99.90;;;;;;5052943;28;20221;-76
2021/07/15 01:03:08;;;;;;;14.27;8.88;;;18.80;99.90;;;;;;5054814;28;20610;-75
2021/07/15 01:05:39;;;;;;;15.48;9.48;;;18.90;99.90;;;;;;5047274;28;20203;-76
2021/07/15 01:08:08;;;;;;;17.60;9.00;;;18.90;99.90;;;;;;5051211;28;20221;-75
2021/07/15 01:10:37;;;;;;;11.40;8.18;;;18.90;99.90;;;;;;5050424;28;20202;-75
2021/07/15 01:13:20;;;;;;;12.05;8.07;;;19.00;99.90;;;;;;5048522;28;20210;-75
2021/07/15 01:15:59;;;;;;;12.98;7.90;;;19.00;99.90;;;;;;5047692;28;20202;-75
2021/07/15 01:18:39;;;;;;;14.27;8.13;;;19.00;99.90;;;;;;5045418;28;20313;-75
2021/07/15 01:21:39;;;;;;;14.00;7.85;;;18.90;99.90;;;;;;5058544;28;20229;-75
2021/07/15 01:24:48;;;;;;;12.70;7.32;;;19.00;99.90;;;;;;5046242;28;20206;-76
2021/07/15 01:27:55;;;;;;;11.35;7.90;;;19.00;99.90;;;;;;4975407;28;20259;-75
2021/07/15 01:30:27;;;;;;;14.88;9.40;;;19.00;99.90;;;;;;4974722;28;20215;-76
2021/07/15 01:33:04;;;;;;;15.40;9.90;;;19.00;99.90;;;;;;4962132;28;20239;-76
2021/07/15 01:35:37;;;;;;;18.67;10.80;;;19.00;99.90;;;;;;4966088;28;20236;-76
2021/07/15 01:38:05;;;;;;;17.05;10.20;;;19.00;99.90;;;;;;4971315;28;20674;-76
2021/07/15 01:40:43;;;;;;;21.58;12.77;;;19.00;99.90;;;;;;4976980;28;20213;-75
2021/07/15 01:43:14;;;;;;;16.50;10.32;;;19.00;99.90;;;;;;4978786;28;20268;-76
2021/07/15 01:45:44;;;;;;;14.75;8.85;;;19.10;99.90;;;;;;4974137;28;20894;-76
2021/07/15 01:48:11;;;;;;;18.50;10.55;;;19.10;99.90;;;;;;4975805;28;20243;-75
2021/07/15 01:50:38;;;;;;;24.92;12.38;;;19.10;99.90;;;;;;4972540;28;20240;-76
2021/07/15 01:53:07;;;;;;;19.90;11.40;;;19.10;99.90;;;;;;4967159;28;20218;-76
2021/07/15 01:55:34;;;;;;;21.42;11.45;;;19.00;99.90;;;;;;4977783;28;20205;-76
2021/07/15 01:58:03;;;;;;;25.05;13.23;;;19.00;99.90;;;;;;4967894;28;20205;-76
2021/07/15 02:00:30;;;;;;;21.02;11.75;;;19.00;99.90;;;;;;4973717;28;20212;-75
2021/07/15 02:03:00;;;;;;;23.98;12.75;;;19.10;99.90;;;;;;4996663;28;20193;-76
2021/07/15 02:05:28;;;;;;;20.15;12.13;;;19.10;99.90;;;;;;5058948;28;20216;-75
2021/07/15 02:07:57;;;;;;;22.55;12.93;;;19.10;99.90;;;;;;5055196;28;20287;-76
2021/07/15 02:10:27;;;;;;;20.65;12.55;;;19.10;99.90;;;;;;5045314;28;20229;-76
2021/07/15 02:12:56;;;;;;;19.80;11.25;;;19.10;99.90;;;;;;5055874;28;20209;-76
2021/07/15 02:15:26;;;;;;;21.48;11.95;;;19.10;99.90;;;;;;5046583;28;20202;-75
2021/07/15 02:17:56;;;;;;;18.35;10.70;;;19.10;99.90;;;;;;5045600;28;20202;-76
2021/07/15 02:20:26;;;;;;;22.25;12.68;;;19.10;99.90;;;;;;5045349;28;20202;-76
2021/07/15 02:22:55;;;;;;;18.83;11.13;;;19.10;99.90;;;;;;5048438;28;20209;-76
2021/07/15 02:25:23;;;;;;;20.27;10.65;;;19.20;99.90;;;;;;5045197;28;20198;-75
2021/07/15 02:27:52;;;;;;;18.67;10.45;;;19.20;99.90;;;;;;5045386;28;20694;-75
2021/07/15 02:30:19;;;;;;;19.05;11.00;;;19.10;99.90;;;;;;5045424;28;20199;-75
2021/07/15 02:32:52;;;;;;;19.85;11.60;;;19.00;99.90;;;;;;5052774;28;20210;-75
2021/07/15 02:35:21;;;;;;;20.83;11.32;;;19.00;99.90;;;;;;5045460;28;20253;-76
2021/07/15 02:37:52;;;;;;;18.83;10.63;;;19.00;99.90;;;;;;5048488;28;20236;-76
2021/07/15 02:40:19;;;;;;;19.05;11.13;;;19.00;99.90;;;;;;5046130;28;20680;-76
2021/07/15 02:48:12;;;;;;;22.02;10.80;;;19.10;99.90;;;;;;5053425;28;20225;-75
2021/07/15 02:50:39;;;;;;;17.00;9.00;;;19.10;99.90;;;;;;5049086;28;20202;-76
2021/07/15 02:53:08;;;;;;;18.48;10.52;;;19.10;99.90;;;;;;5055021;28;20206;-76
2021/07/15 02:58:21;;;;;;;16.13;10.48;;;19.20;99.90;;;;;;5054893;28;20240;-76
2021/07/15 03:00:53;;;;;;;16.52;10.82;;;19.20;99.90;;;;;;5049268;28;20268;-76
2021/07/15 03:03:27;;;;;;;20.23;10.73;;;19.10;99.90;;;;;;5048741;28;20198;-76
2021/07/15 03:06:02;;;;;;;20.95;10.55;;;19.20;99.90;;;;;;5048906;28;20205;-76
2021/07/15 03:08:33;;;;;;;17.48;9.73;;;19.20;99.90;;;;;;5053479;28;20270;-75
2021/07/15 03:11:05;;;;;;;19.17;9.88;;;19.10;99.90;;;;;;5059687;28;20233;-75
2021/07/15 03:13:34;;;;;;;19.65;10.52;;;19.10;99.90;;;;;;5052634;28;20203;-76
2021/07/15 03:16:02;;;;;;;23.60;9.82;;;19.10;99.90;;;;;;5047923;28;20202;-76
2021/07/15 03:18:30;;;;;;;22.77;11.43;;;19.10;99.90;;;;;;5054194;28;20295;-75
2021/07/15 03:21:00;;;;;;;23.27;10.55;;;19.10;99.90;;;;;;5049510;28;20203;-75
2021/07/15 03:23:28;;;;;;;17.23;9.85;;;19.00;99.90;;;;;;5051898;28;20198;-75
2021/07/15 03:25:59;;;;;;;20.00;9.43;;;19.10;99.90;;;;;;5050332;28;20256;-75
2021/07/15 03:28:31;;;;;;;15.90;9.75;;;19.00;99.90;;;;;;5049535;28;20275;-75
2021/07/15 03:31:03;;;;;;;21.17;9.20;;;19.10;99.90;;;;;;5053792;28;20209;-75
2021/07/15 03:33:31;;;;;;;16.42;8.73;;;19.10;99.90;;;;;;5047650;28;20257;-75
2021/07/15 03:35:58;;;;;;;18.20;8.90;;;19.20;99.90;;;;;;5048592;28;20292;-75
2021/07/15 03:38:25;;;;;;;19.60;10.00;;;19.20;99.90;;;;;;5049370;28;20206;-75
2021/07/15 03:40:53;;;;;;;19.15;10.50;;;19.20;99.90;;;;;;5053557;28;20268;-75
2021/07/15 03:43:22;;;;;;;17.60;8.70;;;19.10;99.90;;;;;;5048684;28;20852;-76
2021/07/15 03:45:51;;;;;;;13.18;8.32;;;19.10;99.90;;;;;;5048264;28;20203;-76
2021/07/15 03:48:19;;;;;;;15.07;8.35;;;19.10;99.90;;;;;;5051999;28;20230;-75
2021/07/15 03:50:47;;;;;;;19.55;9.15;;;19.10;99.90;;;;;;5048069;28;20202;-75
2021/07/15 03:53:18;;;;;;;17.00;8.70;;;19.20;99.90;;;;;;5046969;28;20261;-75
2021/07/15 03:55:46;;;;;;;12.43;8.43;;;19.20;99.90;;;;;;5052560;28;20210;-75
2021/07/15 03:58:14;;;;;;;18.25;9.38;;;19.10;99.90;;;;;;5048387;28;20210;-75
2021/07/15 04:00:45;;;;;;;13.55;7.80;;;19.10;99.90;;;;;;5054630;28;20236;-75
2021/07/15 04:03:18;;;;;;;13.52;8.23;;;19.20;99.90;;;;;;5049723;28;20229;-75
2021/07/15 04:05:46;;;;;;;13.77;7.70;;;19.20;99.90;;;;;;5047928;28;20649;-76
2021/07/15 04:08:14;;;;;;;15.43;7.78;;;19.10;99.90;;;;;;5047533;28;20252;-74
2021/07/15 04:10:42;;;;;;;9.27;6.38;;;19.10;99.90;;;;;;5047913;28;20206;-75
2021/07/15 04:13:13;;;;;;;11.27;6.68;;;19.10;99.90;;;;;;5051042;28;20228;-75
2021/07/15 04:16:21;;;;;;;10.77;6.60;;;19.10;99.90;;;;;;5049434;28;20209;-75
2021/07/15 04:18:52;;;;;;;14.10;7.00;;;19.00;99.90;;;;;;4971745;28;20205;-74
2021/07/15 04:21:21;;;;;;;11.00;6.97;;;18.90;99.90;;;;;;4973049;28;20205;-75
2021/07/15 04:23:50;;;;;;;12.55;7.47;;;18.80;99.90;;;;;;4966914;28;20209;-75
2021/07/15 04:26:19;;;;;;;9.27;6.57;;;18.80;99.90;;;;;;4967217;28;20205;-75
2021/07/15 04:28:47;;;;;;;12.90;7.05;;;18.70;99.90;;;;;;4966767;28;20260;-75
2021/07/15 04:31:27;;;;;;;9.63;6.63;;;18.80;99.90;;;;;;4967092;28;20678;-75
2021/07/15 04:33:57;;;;;;;15.48;6.85;;;18.80;99.90;;;;;;4966751;28;20272;-75
2021/07/15 04:36:25;;;;;;;8.50;5.75;;;18.90;99.90;;;;;;4966806;28;20566;-75
2021/07/15 04:38:52;;;;;;;7.22;5.50;;;18.80;99.90;;;;;;4966862;28;20739;-75
2021/07/15 04:41:21;;;;;;;9.23;4.90;;;18.80;99.90;;;;;;4971173;28;20707;-75
2021/07/15 04:43:49;;;;;;;7.03;4.70;;;18.90;99.90;;;;;;4967106;28;20237;-75
2021/07/15 04:46:19;;;;;;;7.82;5.53;;;18.90;99.90;;;;;;4966727;28;20771;-75
2021/07/15 04:48:47;;;;;;;6.93;5.07;;;19.00;99.90;;;;;;4976070;28;20221;-75
2021/07/15 04:51:17;;;;;;;6.30;4.88;;;19.00;99.90;;;;;;5047737;28;20236;-74
2021/07/15 04:53:46;;;;;;;5.70;5.13;;;19.00;99.90;;;;;;5047122;28;20266;-75
2021/07/15 04:56:14;;;;;;;7.82;5.43;;;19.00;99.90;;;;;;5047172;28;20210;-75
2021/07/15 04:58:41;;;;;;;7.88;4.65;;;19.00;99.90;;;;;;5051009;28;20790;-75
2021/07/15 05:01:10;;;;;;;12.23;4.80;;;19.10;99.90;;;;;;5057621;28;20616;-74
2021/07/15 05:03:38;;;;;;;7.13;4.38;;;19.20;99.90;;;;;;5046616;28;20207;-75
2021/07/15 05:06:06;;;;;;;5.97;3.67;;;19.30;99.90;;;;;;5047277;28;20203;-74
2021/07/15 05:08:37;;;;;;;5.38;4.10;;;19.30;99.90;;;;;;5046617;28;20721;-74
2021/07/15 05:11:04;;;;;;;6.07;3.67;;;19.40;99.90;;;;;;5053262;28;20206;-75
2021/07/15 05:13:31;;;;;;;5.93;3.83;;;19.50;99.90;;;;;;5059429;28;20205;-74
2021/07/15 05:15:58;;;;;;;3.65;2.22;;;19.60;99.90;;;;;;5046457;28;20264;-74
2021/07/15 05:18:25;;;;;;;8.73;3.05;;;19.50;99.90;;;;;;5050727;28;20198;-74
2021/07/15 05:20:52;;;;;;;3.15;2.58;;;19.50;99.90;;;;;;5046586;28;20209;-74
2021/07/15 05:23:20;;;;;;;2.80;2.60;;;19.60;99.90;;;;;;5046398;28;20202;-74
2021/07/15 05:25:50;;;;;;;2.88;2.67;;;19.60;99.90;;;;;;5047000;28;20217;-74
2021/07/15 05:28:17;;;;;;;2.55;2.35;;;19.60;99.90;;;;;;5049914;28;20201;-74
2021/07/15 05:30:44;;;;;;;2.88;2.47;;;19.50;99.90;;;;;;5063204;28;20209;-75
2021/07/15 05:33:11;;;;;;;4.45;2.53;;;19.60;99.90;;;;;;5053715;28;20719;-75
2021/07/15 05:35:40;;;;;;;3.03;2.83;;;19.70;99.90;;;;;;5051476;28;20311;-75
2021/07/15 05:38:07;;;;;;;2.80;2.60;;;19.70;99.90;;;;;;5046661;28;20202;-74
2021/07/15 05:40:35;;;;;;;2.67;2.47;;;19.80;99.90;;;;;;5046288;28;20232;-74
2021/07/15 05:43:03;;;;;;;3.42;2.40;;;19.80;99.90;;;;;;5049885;28;20281;-74
2021/07/15 05:45:31;;;;;;;2.58;2.38;;;19.80;99.90;;;;;;5054949;28;20232;-74
2021/07/15 05:47:58;;;;;;;2.95;2.70;;;19.70;99.90;;;;;;5050531;28;20206;-74
2021/07/15 05:50:25;;;;;;;3.20;2.95;;;19.70;99.90;;;;;;5046361;28;20230;-74
2021/07/15 05:52:52;;;;;;;5.88;2.55;;;19.80;99.90;;;;;;5046573;28;21126;-74
2021/07/15 05:55:21;;;;;;;2.58;2.38;;;19.70;99.90;;;;;;5046224;28;20266;-74
2021/07/15 05:57:49;;;;;;;3.53;3.20;;;19.60;99.90;;;;;;5040654;28;20214;-74
2021/07/15 06:00:18;;;;;;;3.70;2.90;;;19.60;99.90;;;;;;5030073;28;20206;-74
2021/07/15 06:02:45;;;;;;;3.67;2.65;;;19.50;99.90;;;;;;5051241;28;20203;-74
2021/07/15 06:05:13;;;;;;;8.55;2.72;;;19.50;99.90;;;;;;5058357;28;20213;-74
2021/07/15 06:07:39;;;;;;;2.67;2.47;;;19.60;99.90;;;;;;5050853;28;20201;-75
2021/07/15 06:10:08;;;;;;;4.20;2.70;;;19.50;99.90;;;;;;5047371;28;20253;-74
2021/07/15 06:12:35;;;;;;;3.28;3.08;;;19.50;99.90;;;;;;5052809;28;20202;-74
2021/07/15 06:15:02;;;;;;;4.22;2.90;;;19.50;99.90;;;;;;5052072;28;20225;-75
2021/07/15 06:17:30;;;;;;;3.55;2.83;;;19.50;99.90;;;;;;5051921;28;20205;-74
2021/07/15 06:19:57;;;;;;;8.20;3.88;;;19.60;99.90;;;;;;5047289;28;20202;-75
2021/07/15 06:22:25;;;;;;;6.20;4.07;;;19.60;99.90;;;;;;5054448;28;20202;-75
2021/07/15 06:24:52;;;;;;;6.38;5.10;;;19.70;99.90;;;;;;5053022;28;20206;-75
2021/07/15 06:27:19;;;;;;;13.30;5.75;;;19.70;99.90;;;;;;5054308;28;20202;-75
2021/07/15 06:29:46;;;;;;;7.35;5.47;;;19.80;99.90;;;;;;5049939;28;20222;-76
2021/07/15 06:32:13;;;;;;;11.25;5.85;;;19.80;99.90;;;;;;5050239;28;20198;-75
2021/07/15 06:34:41;;;;;;;7.88;5.40;;;19.80;99.90;;;;;;5050014;28;20213;-75
2021/07/15 06:37:09;;;;;;;20.48;7.07;;;19.80;99.90;;;;;;5049614;28;20284;-75
2021/07/15 06:39:37;;;;;;;9.98;7.30;;;19.80;99.90;;;;;;5055090;28;20205;-75
2021/07/15 06:42:04;;;;;;;10.40;7.53;;;19.90;99.90;;;;;;5060851;28;20201;-75
2021/07/15 06:44:31;;;;;;;9.13;7.30;;;19.90;99.90;;;;;;5051876;28;20198;-75
2021/07/15 06:46:59;;;;;;;8.77;7.15;;;19.90;99.90;;;;;;5049270;28;20199;-75
2021/07/15 06:49:26;;;;;;;13.82;9.10;;;19.90;99.90;;;;;;5056523;28;20236;-76
2021/07/15 06:51:57;;;;;;;12.48;9.30;;;19.90;99.90;;;;;;5049846;28;20270;-76
2021/07/15 06:54:24;;;;;;;10.35;7.75;;;19.90;99.90;;;;;;5049527;28;20202;-75
2021/07/15 06:56:51;;;;;;;15.20;9.40;;;19.80;99.90;;;;;;5049562;28;20650;-75
2021/07/15 06:59:18;;;;;;;13.45;8.95;;;19.80;99.90;;;;;;5049127;28;20202;-75
2021/07/15 07:01:45;;;;;;;12.70;8.30;;;19.80;99.90;;;;;;5056486;28;20236;-75
2021/07/15 07:04:12;;;;;;;9.50;8.35;;;19.90;99.90;;;;;;5055115;28;20214;-74
2021/07/15 07:06:39;;;;;;;11.05;8.55;;;19.90;99.90;;;;;;5048814;28;20202;-74
2021/07/15 07:09:07;;;;;;;10.15;8.25;;;19.70;99.90;;;;;;5052589;28;20221;-75
2021/07/15 07:11:34;;;;;;;11.27;8.77;;;19.70;99.90;;;;;;5055304;28;20256;-75
2021/07/15 07:14:01;;;;;;;16.40;11.43;;;19.70;99.90;;;;;;5049294;28;20210;-74
2021/07/15 07:16:28;;;;;;;11.93;9.55;;;19.80;99.90;;;;;;5065220;28;20233;-74
2021/07/15 07:18:55;;;;;;;12.02;9.75;;;19.80;99.90;;;;;;5052824;28;20210;-74
2021/07/15 07:21:22;;;;;;;12.35;9.13;;;19.80;99.90;;;;;;5048741;28;20622;-75
2021/07/15 07:23:50;;;;;;;12.43;9.73;;;19.90;99.90;;;;;;5048931;28;20206;-76
2021/07/15 07:26:18;;;;;;;13.75;9.65;;;20.00;99.90;;;;;;5048831;28;20207;-75
2021/07/15 07:28:45;;;;;;;14.73;10.32;;;20.10;99.90;;;;;;5054188;28;20206;-75
2021/07/15 07:31:12;;;;;;;14.43;10.15;;;20.10;99.90;;;;;;5048111;28;20214;-75
2021/07/15 07:33:40;;;;;;;15.52;9.98;;;20.10;99.90;;;;;;5048964;28;20210;-75
2021/07/15 07:36:07;;;;;;;15.63;10.13;;;20.00;99.90;;;;;;5049343;28;20244;-74
2021/07/15 07:38:34;;;;;;;13.77;10.40;;;20.00;99.90;;;;;;5049119;28;20206;-75
2021/07/15 07:41:01;;;;;;;11.85;9.75;;;20.10;99.90;;;;;;5052245;28;20743;-74
2021/07/15 07:43:30;;;;;;;13.23;10.50;;;20.10;99.90;;;;;;5059384;28;20201;-75
2021/07/15 07:45:57;;;;;;;10.70;8.70;;;20.10;99.90;;;;;;5047923;28;20264;-75
2021/07/15 07:48:25;;;;;;;10.75;9.13;;;20.20;99.90;;;;;;5048558;28;20706;-75
2021/07/15 07:50:53;;;;;;;15.20;9.40;;;20.30;99.90;;;;;;5053506;28;20222;-75
2021/07/15 07:53:20;;;;;;;15.00;9.27;;;20.40;99.90;;;;;;5058551;28;20627;-75
2021/07/15 07:55:48;;;;;;;11.82;8.85;;;20.60;99.90;;;;;;5049124;28;20199;-75
2021/07/15 07:58:14;;;;;;;14.35;9.25;;;20.70;99.90;;;;;;5053541;28;20632;-75
2021/07/15 08:00:43;;;;;;;11.75;9.27;;;20.90;99.90;;;;;;5048589;28;20260;-75
2021/07/15 08:03:10;;;;;;;10.52;8.48;;;21.00;99.90;;;;;;5052763;28;20206;-75
2021/07/15 08:05:40;;;;;;;19.17;9.45;;;21.00;99.90;;;;;;5048210;28;20214;-75
2021/07/15 08:08:07;;;;;;;21.15;9.10;;;21.00;99.90;;;;;;5048475;28;20264;-75
2021/07/15 08:10:36;;;;;;;13.80;9.25;;;21.20;99.90;;;;;;5054864;28;20603;-75
2021/07/15 08:13:03;;;;;;;10.95;8.82;;;21.30;99.90;;;;;;5048253;28;20214;-75
2021/07/15 08:15:30;;;;;;;11.05;8.88;;;21.50;99.90;;;;;;5053763;28;20236;-75
2021/07/15 08:17:58;;;;;;;11.48;8.05;;;21.60;99.90;;;;;;5047907;28;20198;-75
2021/07/15 08:20:25;;;;;;;15.82;9.05;;;21.70;99.90;;;;;;5050353;28;20202;-75
2021/07/15 08:22:52;;;;;;;11.32;8.77;;;21.90;99.90;;;;;;5047833;28;20264;-75
2021/07/15 08:25:20;;;;;;;11.18;7.60;;;22.20;99.90;;;;;;5049735;28;20574;-75
2021/07/15 08:27:47;;;;;;;10.20;7.65;;;22.40;99.90;;;;;;5054164;28;20230;-75
2021/07/15 08:30:16;;;;;;;12.23;7.75;;;22.80;99.90;;;;;;5052637;28;20879;-75
2021/07/15 08:32:43;;;;;;;8.85;6.85;;;23.00;99.90;;;;;;5047054;28;20241;-75
2021/07/15 08:35:11;;;;;;;9.93;6.85;;;23.30;99.90;;;;;;5047132;28;20768;-75
2021/07/15 08:37:38;;;;;;;12.05;7.70;;;23.70;99.90;;;;;;5050637;28;20648;-76
2021/07/15 08:40:07;;;;;;;7.45;6.25;;;23.90;99.90;;;;;;5047235;28;20237;-76
2021/07/15 08:42:34;;;;;;;7.70;5.57;;;24.10;99.90;;;;;;5047254;28;20252;-76
2021/07/15 08:45:03;;;;;;;7.68;5.90;;;24.50;99.90;;;;;;5051544;28;20203;-76
2021/07/15 08:47:30;;;;;;;8.27;5.93;;;24.80;99.90;;;;;;5054457;28;20197;-75
2021/07/15 08:49:57;;;;;;;7.43;5.93;;;25.10;99.90;;;;;;5047722;28;20260;-76
2021/07/15 08:52:26;;;;;;;6.72;5.93;;;25.00;99.90;;;;;;5047459;28;20202;-76
2021/07/15 08:55:00;;;;;;;7.22;6.18;;;24.90;99.90;;;;;;5047123;28;20229;-76
2021/07/15 08:57:26;;;;;;;14.10;6.75;;;25.00;99.90;;;;;;5045745;28;20293;-76
2021/07/15 08:59:53;;;;;;;9.32;6.57;;;25.20;99.90;;;;;;5051979;28;20202;-76
2021/07/15 09:02:22;;;;;;;9.85;6.80;;;25.40;99.90;;;;;;5053503;28;20199;-76
2021/07/15 09:04:52;;;;;;;8.00;6.75;;;25.50;99.90;;;;;;5056987;28;20252;-76
2021/07/15 09:07:20;;;;;;;9.10;6.70;;;25.50;99.90;;;;;;5054086;28;20204;-76
2021/07/15 09:09:48;;;;;;;9.60;7.28;;;25.10;99.90;;;;;;5066189;28;20206;-75
2021/07/15 09:12:16;;;;;;;12.13;8.27;;;25.00;99.90;;;;;;5071961;28;20460;-74
2021/07/15 09:14:48;;;;;;;9.63;5.78;;;24.70;99.90;;;;;;5077136;28;20198;-74
2021/07/15 09:17:16;;;;;;;9.60;5.30;;;25.00;99.90;;;;;;5051917;28;20583;-74
2021/07/15 09:19:44;;;;;;;6.53;5.50;;;24.90;99.90;;;;;;5047411;28;20229;-76
2021/07/15 09:22:13;;;;;;;9.20;5.65;;;25.10;99.90;;;;;;5051272;28;20202;-76
2021/07/15 09:24:45;;;;;;;4.40;3.78;;;25.40;99.90;;;;;;5056336;28;20233;-76
2021/07/15 09:27:18;;;;;;;14.18;4.75;;;25.70;99.90;;;;;;5050642;28;20289;-75
2021/07/15 09:30:02;;;;;;;5.55;5.05;;;25.90;99.90;;;;;;5049466;28;20229;-76
2021/07/15 09:32:30;;;;;;;7.13;5.80;;;25.80;99.90;;;;;;5051359;28;20220;-76
2021/07/15 09:35:04;;;;;;;8.60;6.32;;;25.90;99.90;;;;;;5045761;28;20206;-76
2021/07/15 09:37:34;;;;;;;7.88;6.18;;;25.90;99.90;;;;;;5045539;28;20608;-76
2021/07/15 09:40:01;;;;;;;8.82;6.50;;;25.90;99.90;;;;;;5046458;28;20274;-76
2021/07/15 09:42:29;;;;;;;8.07;5.90;;;26.40;99.90;;;;;;5045733;28;20252;-76
2021/07/15 09:44:56;;;;;;;13.32;6.80;;;26.70;99.90;;;;;;5045727;28;20202;-76
2021/07/15 09:47:39;;;;;;;9.55;6.88;;;26.70;99.90;;;;;;5052163;28;20225;-76
2021/07/15 09:50:27;;;;;;;8.23;5.70;;;26.50;99.90;;;;;;5045521;28;20225;-76
2021/07/15 09:52:54;;;;;;;11.48;6.00;;;26.30;99.90;;;;;;5052055;28;20206;-76
2021/07/15 09:55:23;;;;;;;9.02;6.63;;;26.50;99.90;;;;;;5045335;28;20850;-76
2021/07/15 09:58:02;;;;;;;11.93;6.57;;;26.80;99.90;;;;;;5056041;28;20215;-76
2021/07/15 10:00:34;;;;;;;7.85;6.47;;;27.10;99.90;;;;;;5050796;28;20230;-76
2021/07/15 10:05:14;;;;;;;10.82;7.53;;;27.10;99.90;;;;;;5086806;27;20568;-77
2021/07/15 10:07:41;;;;;;;12.85;9.70;;;27.00;99.90;;;;;;5086029;28;20208;-77
2021/07/15 10:10:19;;;;;;;11.40;9.57;;;26.30;99.90;;;;;;5083166;28;20241;-75
2021/07/15 10:12:46;;;;;;;12.50;9.30;;;26.00;99.90;;;;;;5087262;28;20891;-75
2021/07/15 10:15:15;;;;;;;15.13;9.73;;;25.90;99.90;;;;;;5086619;28;20196;-74
2021/07/15 10:17:43;;;;;;;12.18;9.55;;;25.90;99.90;;;;;;5086477;28;20230;-74
2021/07/15 10:20:14;;;;;;;12.70;9.40;;;26.00;99.90;;;;;;5089332;28;20536;-76
2021/07/15 10:28:05;;;;;;;18.38;11.25;;;25.50;99.90;;;;;;5082333;28;20711;-74
2021/07/15 10:30:32;;;;;;;15.18;10.70;;;25.20;99.90;;;;;;5086592;28;20245;-75
2021/07/15 10:32:59;;;;;;;14.32;10.70;;;25.10;99.90;;;;;;5088363;28;20257;-76
2021/07/15 10:35:28;;;;;;;14.30;10.93;;;25.20;99.90;;;;;;5081983;28;20212;-76
2021/07/15 10:37:58;;;;;;;13.27;9.02;;;25.10;99.90;;;;;;5082720;28;20231;-76
2021/07/15 10:40:29;;;;;;;12.68;9.07;;;25.00;99.90;;;;;;5082957;28;20197;-76
2021/07/15 10:42:57;;;;;;;19.30;10.13;;;25.00;99.90;;;;;;5081704;28;20225;-76
2021/07/15 10:45:24;;;;;;;22.98;11.15;;;24.70;99.90;;;;;;5081926;28;20197;-76
2021/07/15 10:47:54;;;;;;;14.45;10.05;;;24.60;99.90;;;;;;5086536;28;20205;-76
2021/07/15 10:50:21;;;;;;;15.20;10.07;;;24.70;99.90;;;;;;5090169;28;20197;-74
2021/07/15 10:52:50;;;;;;;11.55;9.70;;;24.70;99.90;;;;;;5085394;28;20228;-74
2021/07/15 10:55:18;;;;;;;12.18;9.43;;;24.60;99.90;;;;;;5082062;28;20193;-74
2021/07/15 10:57:50;;;;;;;14.52;11.45;;;24.50;99.90;;;;;;5088270;28;20251;-75
2021/07/15 11:00:28;;;;;;;14.95;11.18;;;24.50;99.90;;;;;;5085598;28;20288;-75
2021/07/15 11:03:12;;;;;;;15.02;11.02;;;24.40;99.90;;;;;;5084553;28;20232;-74
2021/07/15 11:05:51;;;;;;;16.25;10.75;;;24.20;99.90;;;;;;5087861;28;20263;-74
2021/07/15 11:08:20;;;;;;;16.08;9.68;;;24.40;99.90;;;;;;5081741;28;20226;-75
2021/07/15 11:10:59;;;;;;;13.10;9.82;;;24.40;99.90;;;;;;5082518;28;20228;-74
2021/07/15 11:13:29;;;;;;;14.60;10.60;;;24.40;99.90;;;;;;5086823;28;20229;-74
2021/07/15 11:15:57;;;;;;;16.38;11.35;;;24.40;99.90;;;;;;5070162;28;20202;-74
2021/07/15 11:18:47;;;;;;;13.32;10.77;;;24.40;99.90;;;;;;5074875;28;20259;-74
2021/07/15 11:21:36;;;;;;;16.75;10.93;;;24.40;99.90;;;;;;5067761;28;20265;-75
2021/07/15 11:24:51;;;;;;;18.20;11.70;;;24.50;99.90;;;;;;5068395;28;20260;-74
2021/07/15 11:27:34;;;;;;;15.68;11.52;;;24.40;99.90;;;;;;5045507;28;20205;-74
2021/07/15 11:30:01;;;;;;;18.55;12.65;;;24.40;99.90;;;;;;5045680;28;20209;-74
2021/07/15 11:32:29;;;;;;;17.02;12.15;;;24.30;99.90;;;;;;5057078;28;20263;-74
2021/07/15 11:34:56;;;;;;;17.88;12.02;;;24.40;99.90;;;;;;5045180;28;20253;-74
2021/07/15 11:37:39;;;;;;;20.48;11.75;;;24.20;99.90;;;;;;5045862;28;20264;-74
2021/07/15 11:40:29;;;;;;;24.55;13.05;;;24.10;99.90;;;;;;5044839;28;20263;-75
2021/07/15 11:43:15;;;;;;;24.60;13.00;;;24.10;99.90;;;;;;5048336;28;20237;-74
2021/07/15 11:46:04;;;;;;;24.63;13.00;;;23.90;99.90;;;;;;5044476;28;20244;-76
2021/07/15 11:48:45;;;;;;;30.17;13.30;;;23.90;99.90;;;;;;5048959;28;20206;-74
2021/07/15 11:51:40;;;;;;;26.20;13.57;;;23.80;99.90;;;;;;5056286;28;20203;-74
2021/07/15 11:54:46;;;;;;;27.63;14.73;;;23.80;99.90;;;;;;5051147;28;20202;-76
2021/07/15 11:57:24;;;;;;;25.05;14.40;;;23.80;99.90;;;;;;5048971;28;20198;-76
2021/07/15 12:00:05;;;;;;;34.65;15.57;;;23.60;99.90;;;;;;5048136;28;20194;-75
2021/07/15 12:02:37;;;;;;;36.50;17.42;;;23.60;99.90;;;;;;5068802;28;20201;-76
2021/07/15 12:05:28;;;;;;;39.88;17.45;;;23.60;99.90;;;;;;5070785;28;20256;-76
2021/07/15 12:08:12;;;;;;;29.65;15.18;;;23.50;99.90;;;;;;5077404;28;20198;-75
2021/07/15 12:10:43;;;;;;;31.13;16.38;;;23.50;99.90;;;;;;5070748;28;20672;-76
2021/07/15 12:13:11;;;;;;;27.42;15.60;;;23.40;99.90;;;;;;5074220;28;20197;-76
2021/07/15 12:15:44;;;;;;;28.52;15.25;;;23.40;99.90;;;;;;5074394;28;20546;-76
2021/07/15 12:18:13;;;;;;;26.88;14.63;;;23.50;99.90;;;;;;5066653;28;20213;-75
2021/07/15 12:20:43;;;;;;;31.70;15.05;;;23.60;99.90;;;;;;5072626;28;20594;-75
2021/07/15 12:23:15;;;;;;;23.42;13.63;;;23.70;99.90;;;;;;5071286;28;20201;-76
2021/07/15 12:25:45;;;;;;;28.23;16.90;;;23.80;99.90;;;;;;5066106;28;20205;-76
2021/07/15 12:28:16;;;;;;;24.33;15.15;;;23.80;99.90;;;;;;5064647;28;20213;-76
2021/07/15 12:30:48;;;;;;;33.67;17.42;;;23.70;99.90;;;;;;5066711;28;20213;-76
2021/07/15 12:33:16;;;;;;;24.13;17.73;;;23.70;99.90;;;;;;5066902;28;20231;-76
2021/07/15 12:35:44;;;;;;;32.05;18.25;;;23.90;99.90;;;;;;5074540;28;20239;-76
2021/07/15 12:38:27;;;;;;;27.50;18.00;;;24.10;99.90;;;;;;5076584;28;20208;-76
2021/07/15 12:43:55;;;;;;;35.75;20.23;;;24.50;99.90;;;;;;5066497;28;20575;-75
2021/07/15 12:46:25;;;;;;;29.40;18.90;;;24.60;99.90;;;;;;5066637;28;20206;-75
2021/07/15 12:48:54;;;;;;;30.38;18.13;;;24.70;99.90;;;;;;5066387;28;20201;-76
2021/07/15 12:51:22;;;;;;;24.33;16.88;;;24.60;99.90;;;;;;5071968;28;20625;-76
2021/07/15 12:53:51;;;;;;;27.90;15.57;;;24.40;99.90;;;;;;5070956;28;20756;-75
2021/07/15 12:56:20;;;;;;;30.38;17.65;;;24.40;99.90;;;;;;5066889;28;20332;-75
2021/07/15 12:59:01;;;;;;;26.33;15.70;;;24.30;99.90;;;;;;5067132;28;20225;-75
2021/07/15 13:01:30;;;;;;;25.42;14.43;;;24.30;99.90;;;;;;5066443;28;20201;-75
2021/07/15 13:04:05;;;;;;;26.27;15.73;;;24.40;99.90;;;;;;5066263;28;20267;-75
2021/07/15 13:06:32;;;;;;;23.92;14.77;;;24.50;99.90;;;;;;5066566;28;20247;-75
2021/07/15 13:09:07;;;;;;;24.23;15.40;;;24.70;99.90;;;;;;5066077;28;20202;-75
2021/07/15 13:14:19;;;;;;;30.75;16.08;;;24.90;99.90;;;;;;5066296;28;20228;-75
2021/07/15 13:16:49;;;;;;;28.00;14.88;;;24.90;99.90;;;;;;5065996;28;20214;-75
2021/07/15 13:19:18;;;;;;;28.88;18.10;;;25.00;99.90;;;;;;5066364;28;20224;-75
2021/07/15 13:21:45;;;;;;;27.13;16.65;;;24.90;99.90;;;;;;5066540;28;20213;-74